Ayers Rock, Australia
Current Conditions -  °F | °C
As of 6:00 AM on Thursday 23 Oct 2014 (Local Time) from YAYE Reporting Station
Clear Clear  
Wind Chill: 66°   Ceiling: Unl
Heat Index: 66°   Visibility: 6mi
Dew Point: 32°   Wind: 1mph
Humidity: 28%   Direction: 130°SE
Pressure: 30"   Gusts: NA
Location:  25.34°S, 131.06°E
Report Text: YAYE 222100Z AUTO 13001KT 9999 // NCD 19/00 Q1016
Loading
Personal Weather Stations






























Interactive Weather Map
Tropical Storm Tracking
New forecast layout! Learn more

10-Day Weather Forecast

Advertisements
Track Severe Weather on mobile